Impacts METAR Board
IDs:

KPHL - Philadelphia Intl, PA, US

Updated at: 1700 UTC 22 May 2018
Potential Impact None Slight Moderate High
Time 22/05Z 22/06Z 22/07Z 22/08Z 22/09Z 22/10Z 22/11Z 22/12Z 22/13Z 22/14Z 22/15Z 22/16Z 22/17Z
Temp62 62 61 60 60 60 61 63 63 65 66 66 63
Dewpt53 53 54 56 55 56 57 57 56 55 55 57 56
Altim30.17 30.16 30.16 30.14 30.13 30.13 30.14 30.15 30.16 30.14 30.13 30.13 30.11
VIS10 10 10 10 10 10 10 10 10 10 10 7 7
CIG-- 280 180 160 160 110 80 60 60 50 50 45 45
CoverSCTBKNOVCOVCOVCOVCOVCOVCOVCOVCOVCOVCOVC
FltCatVFRVFRVFRVFRVFRVFRVFRVFRVFRVFRVFRVFRVFR
WX-----------------------RA-RA
WDir2102000130011011013014012012014040
WSpd4 4 0 3 0 3 3 3 4 6 4 4 3
WGst-- -- -- -- -- -- -- -- -- -- -- -- --
Raw hourly METARs
KPHL 220454Z 21004KT 10SM FEW220 SCT280 17/12 A3017 RMK AO2 SLP216 T01670117 402610161 $
KPHL 220554Z 20004KT 10SM SCT220 BKN280 17/12 A3016 RMK AO2 SLP213 T01670117 10222 20156 58004 $
KPHL 220654Z 00000KT 10SM BKN180 OVC250 16/12 A3016 RMK AO2 SLP211 T01610122 $
KPHL 220754Z 13003KT 10SM FEW100 BKN160 OVC230 16/13 A3014 RMK AO2 SLP206 T01560133 $
KPHL 220854Z 00000KT 10SM FEW100 BKN160 OVC230 16/13 A3013 RMK AO2 SLP204 T01560128 58009 $
KPHL 220954Z 11003KT 10SM SCT075 BKN110 BKN200 OVC280 16/13 A3013 RMK AO2 SLP202 T01560133 $
KPHL 221054Z 11003KT 10SM BKN080 BKN160 OVC250 16/14 A3014 RMK AO2 SLP206 T01610139 $
KPHL 221154Z 13003KT 10SM BKN060 OVC160 17/14 A3015 RMK AO2 SLP209 T01720139 10172 20150 53005 $
KPHL 221254Z 14004KT 10SM BKN060 OVC160 17/13 A3016 RMK AO2 SLP213 T01720133 $
KPHL 221354Z 12006KT 10SM BKN050 OVC090 18/13 A3014 RMK AO2 SLP207 T01830128 $
KPHL 221454Z 12004KT 10SM BKN050 OVC075 19/13 A3013 RMK AO2 SLP203 T01890128 58006 $
KPHL 221554Z 14004KT 7SM -RA BKN045 OVC070 19/14 A3013 RMK AO2 RAB25 SLP201 P0000 T01890139 $
KPHL 221654Z 04003KT 7SM -RA BKN045 OVC075 17/13 A3011 RMK AO2 SLP194 P0002 T01720133 $



Page loaded:  17:42 UTC  |   10:42 AM Pacific  |   11:42 AM Mountain  |   12:42 PM Central  |   01:42 PM Eastern

 

ADVISORIES

FORECASTS

FORECASTS

OBSERVATIONS

USER TOOLS

ABOUT US